createdAt,value
2018-05-13T00:00:36.087Z,1005.17
2018-05-13T00:01:36.081Z,1005.21
2018-05-13T00:02:36.092Z,1005.17
2018-05-13T00:03:36.084Z,1005.22
2018-05-13T00:04:36.079Z,1005.18
2018-05-13T00:05:36.078Z,1005.20
2018-05-13T00:06:36.081Z,1005.17
2018-05-13T00:07:36.080Z,1005.17
2018-05-13T00:08:36.080Z,1005.12
2018-05-13T00:09:36.079Z,1005.18
2018-05-13T00:10:36.074Z,1005.11
2018-05-13T00:11:36.072Z,1005.12
2018-05-13T00:12:36.073Z,1005.14
2018-05-13T00:13:36.071Z,1005.14
2018-05-13T00:14:36.077Z,1005.12
2018-05-13T00:15:36.072Z,1005.16
2018-05-13T00:16:36.073Z,1005.09
2018-05-13T00:17:36.072Z,1005.16
2018-05-13T00:18:36.065Z,1005.17
2018-05-13T00:19:36.064Z,1005.20
2018-05-13T00:20:36.069Z,1005.24
2018-05-13T00:21:36.073Z,1005.20
2018-05-13T00:22:36.065Z,1005.19
2018-05-13T00:23:36.060Z,1005.21
2018-05-13T00:24:36.058Z,1005.26
2018-05-13T00:25:36.056Z,1005.21
2018-05-13T00:26:36.059Z,1005.30
2018-05-13T00:27:36.058Z,1005.30
2018-05-13T00:28:36.057Z,1005.26
2018-05-13T00:29:36.057Z,1005.27
2018-05-13T00:30:36.055Z,1005.25
2018-05-13T00:31:36.050Z,1005.27
2018-05-13T00:32:36.052Z,1005.32
2018-05-13T00:33:36.047Z,1005.36
2018-05-13T00:34:36.049Z,1005.34
2018-05-13T00:35:36.049Z,1005.34
2018-05-13T00:36:36.042Z,1005.38
2018-05-13T00:37:36.041Z,1005.39
2018-05-13T00:38:36.048Z,1005.38
2018-05-13T00:39:36.042Z,1005.37
2018-05-13T00:40:36.042Z,1005.35
2018-05-13T00:41:36.039Z,1005.39
2018-05-13T00:42:36.034Z,1005.37
2018-05-13T00:43:36.036Z,1005.40
2018-05-13T00:44:36.031Z,1005.34
2018-05-13T00:45:36.030Z,1005.36
2018-05-13T00:46:36.032Z,1005.34
2018-05-13T00:47:36.031Z,1005.37
2018-05-13T00:48:36.031Z,1005.41
2018-05-13T00:49:36.029Z,1005.31
2018-05-13T00:50:36.049Z,1005.40
2018-05-13T00:51:36.023Z,1005.40
2018-05-13T00:52:36.025Z,1005.37
2018-05-13T00:53:36.023Z,1005.30
2018-05-13T00:54:36.016Z,1005.30
2018-05-13T00:55:36.016Z,1005.32
2018-05-13T00:56:36.013Z,1005.24
2018-05-13T00:57:36.012Z,1005.28
2018-05-13T00:58:36.014Z,1005.26
2018-05-13T00:59:36.013Z,1005.28
2018-05-13T01:00:36.012Z,1005.26
2018-05-13T01:01:36.009Z,1005.28
2018-05-13T01:02:36.003Z,1005.22
2018-05-13T01:03:36.005Z,1005.26
2018-05-13T01:04:36.011Z,1005.23
2018-05-13T01:05:36.001Z,1005.25
2018-05-13T01:06:36.004Z,1005.27
2018-05-13T01:07:36.007Z,1005.25
2018-05-13T01:08:35.995Z,1005.29
2018-05-13T01:09:35.992Z,1005.25
2018-05-13T01:10:35.999Z,1005.23
2018-05-13T01:11:35.994Z,1005.18
2018-05-13T01:12:35.992Z,1005.18
2018-05-13T01:13:35.992Z,1005.14
2018-05-13T01:14:35.984Z,1005.18
2018-05-13T01:15:35.983Z,1005.10
2018-05-13T01:16:35.983Z,1005.09
2018-05-13T01:17:35.980Z,1005.11
2018-05-13T01:18:35.996Z,1005.07
2018-05-13T01:19:35.982Z,1005.08
2018-05-13T01:20:35.980Z,1005.12
2018-05-13T01:21:35.978Z,1005.11
2018-05-13T01:22:35.972Z,1005.14
2018-05-13T01:23:35.971Z,1005.14
2018-05-13T01:24:35.975Z,1005.10
2018-05-13T01:25:35.977Z,1005.10
2018-05-13T01:26:35.969Z,1005.15
2018-05-13T01:27:35.965Z,1005.18
2018-05-13T01:28:35.964Z,1005.16
2018-05-13T01:29:35.962Z,1005.17
2018-05-13T01:30:35.965Z,1005.13
2018-05-13T01:31:35.963Z,1005.21
2018-05-13T01:32:35.963Z,1005.19
2018-05-13T01:33:35.965Z,1005.14
2018-05-13T01:34:35.970Z,1005.17
2018-05-13T01:35:35.953Z,1005.16
2018-05-13T01:36:35.951Z,1005.16
2018-05-13T01:37:35.948Z,1005.16
2018-05-13T01:38:35.952Z,1005.12
2018-05-13T01:39:35.950Z,1005.10
2018-05-13T01:40:35.945Z,1005.13
2018-05-13T01:41:35.941Z,1005.13
2018-05-13T01:42:35.948Z,1005.03
2018-05-13T01:43:35.943Z,1005.21
2018-05-13T01:44:35.942Z,1005.13
2018-05-13T01:45:35.944Z,1005.14
2018-05-13T01:46:35.933Z,1005.14
2018-05-13T01:47:35.934Z,1005.21
2018-05-13T01:48:35.931Z,1005.11
2018-05-13T01:49:35.932Z,1005.20
2018-05-13T01:50:35.933Z,1005.21
2018-05-13T01:51:35.932Z,1005.24
2018-05-13T01:52:35.932Z,1005.26
2018-05-13T01:53:35.926Z,1005.26
2018-05-13T01:54:35.924Z,1005.25
2018-05-13T01:55:35.919Z,1005.22
2018-05-13T01:56:35.922Z,1005.32
2018-05-13T01:57:35.919Z,1005.35
2018-05-13T01:58:35.914Z,1005.30
2018-05-13T01:59:35.913Z,1005.29
2018-05-13T02:00:35.914Z,1005.39
2018-05-13T02:01:35.908Z,1005.37
2018-05-13T02:02:35.912Z,1005.29
2018-05-13T02:03:35.911Z,1005.33
2018-05-13T02:04:35.910Z,1005.40
2018-05-13T02:05:35.913Z,1005.43
2018-05-13T02:06:35.900Z,1005.40
2018-05-13T02:07:35.907Z,1005.45
2018-05-13T02:08:35.897Z,1005.40
2018-05-13T02:09:35.895Z,1005.37
2018-05-13T02:10:35.898Z,1005.37
2018-05-13T02:11:35.896Z,1005.37
2018-05-13T02:12:35.891Z,1005.35
2018-05-13T02:13:35.887Z,1005.30
2018-05-13T02:14:35.892Z,1005.31
2018-05-13T02:15:35.889Z,1005.27
2018-05-13T02:16:35.888Z,1005.27
2018-05-13T02:17:35.885Z,1005.30
2018-05-13T02:18:35.879Z,1005.30
2018-05-13T02:19:35.878Z,1005.33
2018-05-13T02:20:35.880Z,1005.28
2018-05-13T02:21:35.878Z,1005.27
2018-05-13T02:22:35.872Z,1005.30
2018-05-13T02:23:35.871Z,1005.30
2018-05-13T02:24:35.869Z,1005.28
2018-05-13T02:25:35.868Z,1005.27
2018-05-13T02:26:35.870Z,1005.25
2018-05-13T02:27:35.870Z,1005.24
2018-05-13T02:28:35.866Z,1005.28
2018-05-13T02:29:35.861Z,1005.26
2018-05-13T02:30:35.864Z,1005.22
2018-05-13T02:31:35.862Z,1005.27
2018-05-13T02:32:35.860Z,1005.24
2018-05-13T02:33:35.857Z,1005.20
2018-05-13T02:34:35.851Z,1005.22
2018-05-13T02:35:35.849Z,1005.16
2018-05-13T02:36:35.849Z,1005.21
2018-05-13T02:37:35.845Z,1005.22
2018-05-13T02:38:35.848Z,1005.25
2018-05-13T02:39:35.847Z,1005.23
2018-05-13T02:40:35.846Z,1005.24
2018-05-13T02:41:35.843Z,1005.24
2018-05-13T02:42:35.838Z,1005.27
2018-05-13T02:43:35.836Z,1005.31
2018-05-13T02:44:35.838Z,1005.31
2018-05-13T02:45:35.837Z,1005.33
2018-05-13T02:46:35.830Z,1005.30
2018-05-13T02:47:35.828Z,1005.30
2018-05-13T02:48:35.829Z,1005.27
2018-05-13T02:49:35.824Z,1005.30
2018-05-13T02:50:35.830Z,1005.31
2018-05-13T02:51:35.828Z,1005.26
2018-05-13T02:52:35.824Z,1005.26
2018-05-13T02:53:35.821Z,1005.24
2018-05-13T02:54:35.815Z,1005.26
2018-05-13T02:55:35.828Z,1005.24
2018-05-13T02:56:35.812Z,1005.23
2018-05-13T02:57:35.818Z,1005.22
2018-05-13T02:58:35.813Z,1005.23
2018-05-13T02:59:35.812Z,1005.21
2018-05-13T03:00:35.806Z,1005.19
2018-05-13T03:01:35.802Z,1005.20
2018-05-13T03:02:35.806Z,1005.21
2018-05-13T03:03:35.805Z,1005.18
2018-05-13T03:04:35.802Z,1005.19
2018-05-13T03:05:35.800Z,1005.23
2018-05-13T03:06:35.797Z,1005.26
2018-05-13T03:07:35.792Z,1005.29
2018-05-13T03:08:35.790Z,1005.28
2018-05-13T03:09:35.788Z,1005.25
2018-05-13T03:10:35.792Z,1005.27
2018-05-13T03:11:35.789Z,1005.23
2018-05-13T03:12:35.794Z,1005.30
2018-05-13T03:13:35.787Z,1005.23
2018-05-13T03:14:35.779Z,1005.32
2018-05-13T03:15:35.778Z,1005.37
2018-05-13T03:16:35.782Z,1005.37
2018-05-13T03:17:35.778Z,1005.44
2018-05-13T03:18:35.772Z,1005.40
2018-05-13T03:19:35.770Z,1005.38
2018-05-13T03:20:35.767Z,1005.35
2018-05-13T03:21:35.766Z,1005.38
2018-05-13T03:22:35.769Z,1005.42
2018-05-13T03:23:35.767Z,1005.49
2018-05-13T03:24:35.766Z,1005.51
2018-05-13T03:25:35.764Z,1005.58
2018-05-13T03:26:35.757Z,1005.58
2018-05-13T03:27:35.756Z,1005.66
2018-05-13T03:28:35.754Z,1005.67
2018-05-13T03:29:35.753Z,1005.65
2018-05-13T03:30:35.754Z,1005.69
2018-05-13T03:31:35.752Z,1005.74
2018-05-13T03:32:35.746Z,1005.72
2018-05-13T03:33:35.744Z,1005.80
2018-05-13T03:34:35.747Z,1005.72
2018-05-13T03:35:35.744Z,1005.70
2018-05-13T03:36:35.743Z,1005.69
2018-05-13T03:37:35.741Z,1005.74
2018-05-13T03:38:35.738Z,1005.72
2018-05-13T03:39:35.734Z,1005.73
2018-05-13T03:40:35.731Z,1005.75
2018-05-13T03:41:35.728Z,1005.73
2018-05-13T03:42:35.732Z,1005.67
2018-05-13T03:43:35.731Z,1005.66
2018-05-13T03:44:35.727Z,1005.65
2018-05-13T03:45:35.725Z,1005.62
2018-05-13T03:46:35.719Z,1005.55
2018-05-13T03:47:35.717Z,1005.60
2018-05-13T03:48:35.720Z,1005.57
2018-05-13T03:49:35.718Z,1005.51
2018-05-13T03:50:35.712Z,1005.58
2018-05-13T03:51:35.710Z,1005.59
2018-05-13T03:52:35.711Z,1005.64
2018-05-13T03:53:35.707Z,1005.61
2018-05-13T03:54:35.711Z,1005.62
2018-05-13T03:55:35.710Z,1005.61
2018-05-13T03:56:35.709Z,1005.63
2018-05-13T03:57:35.705Z,1005.65
2018-05-13T03:58:35.700Z,1005.72
2018-05-13T03:59:35.699Z,1005.69
2018-05-13T04:00:35.697Z,1005.78
2018-05-13T04:01:35.701Z,1005.77
2018-05-13T04:02:35.698Z,1005.80
2018-05-13T04:03:35.696Z,1005.80
2018-05-13T04:04:35.691Z,1005.86
2018-05-13T04:05:35.688Z,1005.89
2018-05-13T04:06:35.691Z,1005.89
2018-05-13T04:07:35.691Z,1005.92
2018-05-13T04:08:35.688Z,1005.88
2018-05-13T04:09:35.688Z,1005.92
2018-05-13T04:10:35.680Z,1005.89
2018-05-13T04:11:35.680Z,1005.89
2018-05-13T04:12:35.678Z,1005.94
2018-05-13T04:13:35.676Z,1005.92
2018-05-13T04:14:35.680Z,1005.91
2018-05-13T04:15:35.679Z,1005.93
2018-05-13T04:16:35.677Z,1005.91
2018-05-13T04:17:35.674Z,1005.94
2018-05-13T04:18:35.668Z,1005.94
2018-05-13T04:19:35.666Z,1005.96
2018-05-13T04:20:35.670Z,1005.96
2018-05-13T04:21:35.667Z,1006.01
2018-05-13T04:22:35.661Z,1005.98
2018-05-13T04:23:35.661Z,1006.01
2018-05-13T04:24:35.662Z,1006.04
2018-05-13T04:25:35.658Z,1006.02
2018-05-13T04:26:35.662Z,1005.97
2018-05-13T04:27:35.660Z,1005.94
2018-05-13T04:28:35.657Z,1005.86
2018-05-13T04:29:35.654Z,1005.78
2018-05-13T04:30:35.649Z,1005.69
2018-05-13T04:31:35.648Z,1005.72
2018-05-13T04:32:35.647Z,1005.73
2018-05-13T04:33:35.644Z,1005.72
2018-05-13T04:34:35.651Z,1005.65
2018-05-13T04:35:35.650Z,1005.57
2018-05-13T04:36:35.640Z,1005.72
2018-05-13T04:37:35.641Z,1005.78
2018-05-13T04:38:35.641Z,1005.90
2018-05-13T04:39:35.663Z,1006.01
2018-05-13T04:40:35.638Z,1005.95
2018-05-13T04:41:35.635Z,1005.97
2018-05-13T04:42:35.630Z,1005.92
2018-05-13T04:43:35.628Z,1005.89
2018-05-13T04:44:35.627Z,1005.85
2018-05-13T04:45:35.625Z,1005.87
2018-05-13T04:46:35.632Z,1005.87
2018-05-13T04:47:35.626Z,1005.85
2018-05-13T04:48:35.625Z,1005.89
2018-05-13T04:49:35.622Z,1005.86
2018-05-13T04:50:35.614Z,1005.87
2018-05-13T04:51:35.613Z,1005.91
2018-05-13T04:52:35.616Z,1005.87
2018-05-13T04:53:35.612Z,1005.90
2018-05-13T04:54:35.605Z,1005.90
2018-05-13T04:55:35.603Z,1005.93
2018-05-13T04:56:35.601Z,1005.92
2018-05-13T04:57:35.598Z,1006.01
2018-05-13T04:58:35.600Z,1006.03
2018-05-13T04:59:35.598Z,1006.05
2018-05-13T05:00:35.597Z,1006.02
2018-05-13T05:01:35.593Z,1006.04
2018-05-13T05:02:35.587Z,1006.07
2018-05-13T05:03:35.584Z,1006.07
2018-05-13T05:04:35.582Z,1006.05
2018-05-13T05:05:35.580Z,1006.07
2018-05-13T05:06:35.585Z,1006.09
2018-05-13T05:07:35.580Z,1006.09
2018-05-13T05:08:35.574Z,1006.11
2018-05-13T05:09:35.570Z,1006.10
2018-05-13T05:10:35.574Z,1006.12
2018-05-13T05:11:35.571Z,1006.07
2018-05-13T05:12:35.569Z,1006.14
2018-05-13T05:13:35.567Z,1006.17
2018-05-13T05:14:35.559Z,1006.17
2018-05-13T05:15:35.561Z,1006.16
2018-05-13T05:16:35.556Z,1006.19
2018-05-13T05:17:35.553Z,1006.12
2018-05-13T05:18:35.555Z,1006.14
2018-05-13T05:19:35.553Z,1006.10
2018-05-13T05:20:35.552Z,1006.12
2018-05-13T05:21:35.549Z,1006.12
2018-05-13T05:22:35.547Z,1006.10
2018-05-13T05:23:35.542Z,1006.11
2018-05-13T05:24:35.544Z,1006.14
2018-05-13T05:25:35.541Z,1006.16
2018-05-13T05:26:35.536Z,1006.13
2018-05-13T05:27:35.534Z,1006.20
2018-05-13T05:28:35.532Z,1006.21
2018-05-13T05:29:35.531Z,1006.14
2018-05-13T05:30:35.532Z,1006.15
2018-05-13T05:31:35.601Z,1006.15
2018-05-13T05:32:35.531Z,1006.18
2018-05-13T05:33:35.536Z,1006.16
2018-05-13T05:34:35.522Z,1006.19
2018-05-13T05:35:35.521Z,1006.18
2018-05-13T05:36:35.521Z,1006.20
2018-05-13T05:37:35.517Z,1006.17
2018-05-13T05:38:35.521Z,1006.26
2018-05-13T05:39:35.519Z,1006.30
2018-05-13T05:40:35.513Z,1006.39
2018-05-13T05:41:35.512Z,1006.32
2018-05-13T05:42:35.515Z,1006.41
2018-05-13T05:43:35.514Z,1006.53
2018-05-13T05:44:35.514Z,1006.55
2018-05-13T05:45:35.513Z,1006.56
2018-05-13T05:46:35.511Z,1006.55
2018-05-13T05:47:35.507Z,1006.60
2018-05-13T05:48:35.506Z,1006.64
2018-05-13T05:49:35.504Z,1006.67
2018-05-13T05:50:35.510Z,1006.69
2018-05-13T05:51:35.509Z,1006.72
2018-05-13T05:52:35.509Z,1006.75
2018-05-13T05:53:35.507Z,1006.72
2018-05-13T05:54:35.503Z,1006.68
2018-05-13T05:55:35.502Z,1006.70
2018-05-13T05:56:35.508Z,1006.77
2018-05-13T05:57:35.506Z,1006.85
2018-05-13T05:58:35.501Z,1006.89
2018-05-13T05:59:35.502Z,1007.03
2018-05-13T06:00:35.503Z,1007.25
2018-05-13T06:01:35.503Z,1007.12
2018-05-13T06:02:35.509Z,1007.01
2018-05-13T06:03:35.507Z,1007.36
2018-05-13T06:04:35.509Z,1007.37
2018-05-13T06:05:35.507Z,1007.32
2018-05-13T06:06:35.505Z,1007.20
2018-05-13T06:07:35.505Z,1007.36
2018-05-13T06:08:35.510Z,1007.20
2018-05-13T06:09:35.507Z,1007.19
2018-05-13T06:10:35.513Z,1007.07
2018-05-13T06:11:35.514Z,1007.10
2018-05-13T06:12:35.512Z,1007.06
2018-05-13T06:13:35.513Z,1007.08
2018-05-13T06:14:35.520Z,1007.15
2018-05-13T06:15:35.527Z,1007.31
2018-05-13T06:16:35.526Z,1007.19
2018-05-13T06:17:35.527Z,1007.33
2018-05-13T06:18:35.525Z,1007.30
2018-05-13T06:19:35.531Z,1007.44
2018-05-13T06:20:35.531Z,1007.65
2018-05-13T06:21:35.531Z,1007.63
2018-05-13T06:22:35.537Z,1007.42
2018-05-13T06:23:35.539Z,1007.46
2018-05-13T06:24:35.541Z,1007.71
2018-05-13T06:25:35.543Z,1007.56
2018-05-13T06:26:35.541Z,1007.57
2018-05-13T06:27:35.544Z,1007.76
2018-05-13T06:28:35.551Z,1007.68
2018-05-13T06:29:35.553Z,1007.75
2018-05-13T06:30:35.552Z,1007.75
2018-05-13T06:31:35.559Z,1007.65
2018-05-13T06:32:35.560Z,1007.65
2018-05-13T06:33:35.561Z,1007.63
2018-05-13T06:34:35.570Z,1007.65
2018-05-13T06:35:35.573Z,1007.78
2018-05-13T06:36:35.576Z,1007.79
2018-05-13T06:37:35.578Z,1007.83
2018-05-13T06:38:35.661Z,1007.87
2018-05-13T06:39:35.633Z,1007.91
2018-05-13T06:40:35.586Z,1008.07
2018-05-13T06:41:35.588Z,1008.05
2018-05-13T06:42:35.596Z,1008.05
2018-05-13T06:43:35.601Z,1008.07
2018-05-13T06:44:35.600Z,1008.12
2018-05-13T06:45:35.605Z,1007.81
2018-05-13T06:46:35.612Z,1008.08
2018-05-13T06:47:35.618Z,1008.33
2018-05-13T06:48:35.625Z,1008.39
2018-05-13T06:49:35.626Z,1008.30
2018-05-13T06:50:35.628Z,1007.90
2018-05-13T06:51:35.634Z,1007.85
2018-05-13T06:52:35.639Z,1007.86
2018-05-13T06:53:35.642Z,1007.89
2018-05-13T06:54:35.654Z,1007.84
2018-05-13T06:55:35.664Z,1007.76
2018-05-13T06:56:35.663Z,1007.84
2018-05-13T06:57:35.670Z,1008.05
2018-05-13T06:58:35.674Z,1008.25
2018-05-13T06:59:35.676Z,1008.02
2018-05-13T07:00:35.685Z,1007.96
2018-05-13T07:01:35.690Z,1008.42
2018-05-13T07:02:35.771Z,1008.31
2018-05-13T07:03:35.697Z,1008.58
2018-05-13T07:04:35.703Z,1008.23
2018-05-13T07:05:35.709Z,1008.30
2018-05-13T07:06:35.720Z,1008.28
2018-05-13T07:07:35.726Z,1008.31
2018-05-13T07:08:35.732Z,1008.34
2018-05-13T07:09:35.736Z,1008.41
2018-05-13T07:10:35.738Z,1008.30
2018-05-13T07:11:35.745Z,1008.07
2018-05-13T07:12:35.754Z,1007.88
2018-05-13T07:13:35.758Z,1007.89
2018-05-13T07:14:35.770Z,1007.90
2018-05-13T07:15:35.779Z,1007.89
2018-05-13T07:16:35.784Z,1007.86
2018-05-13T07:17:35.789Z,1007.82
2018-05-13T07:18:35.800Z,1007.77
2018-05-13T07:19:35.806Z,1007.83
2018-05-13T07:20:35.818Z,1007.75
2018-05-13T07:21:35.820Z,1007.70
2018-05-13T07:22:35.822Z,1007.72
2018-05-13T07:23:35.830Z,1007.67
2018-05-13T07:24:35.837Z,1007.66
2018-05-13T07:25:35.844Z,1007.61
2018-05-13T07:26:35.856Z,1007.57
2018-05-13T07:27:35.862Z,1007.50
2018-05-13T07:28:35.868Z,1007.50
2018-05-13T07:29:35.873Z,1007.50
2018-05-13T07:30:35.981Z,1007.54
2018-05-13T07:31:35.882Z,1007.52
2018-05-13T07:32:35.953Z,1007.57
2018-05-13T07:33:35.898Z,1007.65
2018-05-13T07:34:35.900Z,1007.69
2018-05-13T07:35:35.906Z,1007.67
2018-05-13T07:36:35.914Z,1007.79
2018-05-13T07:37:35.918Z,1007.81
2018-05-13T07:38:35.928Z,1007.82
2018-05-13T07:39:35.934Z,1007.86
2018-05-13T07:40:35.939Z,1007.87
2018-05-13T07:41:35.943Z,1007.94
2018-05-13T07:42:35.945Z,1007.89
2018-05-13T07:43:35.950Z,1007.91
2018-05-13T07:44:36.032Z,1007.98
2018-05-13T07:45:35.975Z,1007.97
2018-05-13T07:46:35.972Z,1008.04
2018-05-13T07:47:35.980Z,1008.02
2018-05-13T07:48:35.980Z,1008.06
2018-05-13T07:49:35.983Z,1008.09
2018-05-13T07:50:35.994Z,1008.10
2018-05-13T07:51:36.000Z,1008.04
2018-05-13T07:52:36.005Z,1008.00
2018-05-13T07:53:36.012Z,1008.04
2018-05-13T07:54:36.016Z,1007.98
2018-05-13T07:55:36.019Z,1007.89
2018-05-13T07:56:36.025Z,1007.88
2018-05-13T07:57:36.032Z,1007.84
2018-05-13T07:58:36.041Z,1007.79
2018-05-13T07:59:36.048Z,1007.76
2018-05-13T08:00:36.055Z,1007.79
2018-05-13T08:01:36.061Z,1007.79
2018-05-13T08:02:36.063Z,1007.76
2018-05-13T08:03:36.068Z,1007.74
2018-05-13T08:04:36.080Z,1007.75
2018-05-13T08:05:36.086Z,1007.82
2018-05-13T08:06:36.087Z,1007.82
2018-05-13T08:07:36.093Z,1007.76
2018-05-13T08:08:36.099Z,1007.78
2018-05-13T08:09:36.105Z,1007.74
2018-05-13T08:10:36.115Z,1007.74
2018-05-13T08:11:36.122Z,1007.73
2018-05-13T08:12:36.130Z,1007.76
2018-05-13T08:13:36.132Z,1007.77
2018-05-13T08:14:36.133Z,1007.73
2018-05-13T08:15:36.140Z,1007.75
2018-05-13T08:16:36.145Z,1007.76
2018-05-13T08:17:36.149Z,1007.78
2018-05-13T08:18:36.160Z,1007.72
2018-05-13T08:19:36.163Z,1007.71
2018-05-13T08:20:36.164Z,1007.76
2018-05-13T08:21:36.169Z,1007.78
2018-05-13T08:22:36.179Z,1007.79
2018-05-13T08:23:36.182Z,1007.84
2018-05-13T08:24:36.187Z,1007.80
2018-05-13T08:25:36.244Z,1007.82
2018-05-13T08:26:36.190Z,1007.80
2018-05-13T08:27:36.195Z,1007.74
2018-05-13T08:28:36.199Z,1007.75
2018-05-13T08:29:36.205Z,1007.79
2018-05-13T08:30:36.210Z,1007.76
2018-05-13T08:31:36.214Z,1007.84
2018-05-13T08:32:36.218Z,1007.88
2018-05-13T08:33:36.221Z,1007.91
2018-05-13T08:34:36.221Z,1007.96
2018-05-13T08:35:36.224Z,1007.91
2018-05-13T08:36:36.233Z,1007.95
2018-05-13T08:37:36.235Z,1007.94
2018-05-13T08:38:36.235Z,1007.94
2018-05-13T08:39:36.236Z,1007.90
2018-05-13T08:40:36.242Z,1007.87
2018-05-13T08:41:36.244Z,1007.85
2018-05-13T08:42:36.249Z,1007.85
2018-05-13T08:43:36.253Z,1007.80
2018-05-13T08:44:36.253Z,1007.77
2018-05-13T08:45:36.257Z,1007.80
2018-05-13T08:46:36.253Z,1007.82
2018-05-13T08:47:36.257Z,1007.81
2018-05-13T08:48:36.407Z,1007.80
2018-05-13T08:49:36.259Z,1007.85
2018-05-13T08:50:36.265Z,1007.86
2018-05-13T08:51:36.269Z,1007.95
2018-05-13T08:52:36.272Z,1007.97
2018-05-13T08:53:36.268Z,1008.05
2018-05-13T08:54:36.273Z,1008.06
2018-05-13T08:55:36.277Z,1008.07
2018-05-13T08:56:36.279Z,1008.09
2018-05-13T08:57:36.279Z,1008.11
2018-05-13T08:58:36.276Z,1008.09
2018-05-13T08:59:36.298Z,1008.08
2018-05-13T09:00:36.280Z,1008.02
2018-05-13T09:01:36.280Z,1007.95
2018-05-13T09:02:36.300Z,1007.86
2018-05-13T09:03:36.288Z,1007.77
2018-05-13T09:04:36.291Z,1007.68
2018-05-13T09:05:36.289Z,1007.65
2018-05-13T09:06:36.286Z,1007.52
2018-05-13T09:07:36.296Z,1007.46
2018-05-13T09:08:36.293Z,1007.38
2018-05-13T09:09:36.294Z,1007.38
2018-05-13T09:10:36.291Z,1007.40
2018-05-13T09:11:36.293Z,1007.40
2018-05-13T09:12:36.296Z,1007.38
2018-05-13T09:13:36.299Z,1007.30
2018-05-13T09:14:36.301Z,1007.24
2018-05-13T09:15:36.307Z,1007.24
2018-05-13T09:16:36.305Z,1007.26
2018-05-13T09:17:36.310Z,1007.36
2018-05-13T09:18:36.304Z,1007.39
2018-05-13T09:19:36.306Z,1007.41
2018-05-13T09:20:36.317Z,1007.42
2018-05-13T09:21:36.306Z,1007.51
2018-05-13T09:22:36.312Z,1007.52
2018-05-13T09:23:36.316Z,1007.55
2018-05-13T09:24:36.311Z,1007.59
2018-05-13T09:25:36.312Z,1007.66
2018-05-13T09:26:36.353Z,1007.64
2018-05-13T09:27:36.321Z,1007.71
2018-05-13T09:28:36.323Z,1007.67
2018-05-13T09:29:36.338Z,1007.66
2018-05-13T09:30:36.321Z,1007.66
2018-05-13T09:31:36.322Z,1007.76
2018-05-13T09:32:36.326Z,1007.80
2018-05-13T09:33:36.324Z,1007.80
2018-05-13T09:34:36.331Z,1007.87
2018-05-13T09:35:36.334Z,1007.87
2018-05-13T09:36:36.334Z,1007.92
2018-05-13T09:37:36.336Z,1007.91
2018-05-13T09:38:36.333Z,1007.89
2018-05-13T09:39:36.338Z,1007.78
2018-05-13T09:40:36.342Z,1007.70
2018-05-13T09:41:36.341Z,1007.69
2018-05-13T09:42:36.339Z,1007.69
2018-05-13T09:43:36.342Z,1007.68
2018-05-13T09:44:36.343Z,1007.71
2018-05-13T09:45:36.344Z,1007.73
2018-05-13T09:46:36.349Z,1007.76
2018-05-13T09:47:36.352Z,1007.72
2018-05-13T09:48:36.353Z,1007.80
2018-05-13T09:49:36.357Z,1007.83
2018-05-13T09:50:36.352Z,1007.86
2018-05-13T09:51:36.351Z,1007.90
2018-05-13T09:52:36.352Z,1007.94
2018-05-13T09:53:36.352Z,1007.97
2018-05-13T09:54:36.359Z,1007.94
2018-05-13T09:55:36.364Z,1007.98
2018-05-13T09:56:36.361Z,1008.04
2018-05-13T09:57:36.365Z,1008.06
2018-05-13T09:58:36.363Z,1008.08
2018-05-13T09:59:36.374Z,1008.03
2018-05-13T10:00:36.363Z,1007.95
2018-05-13T10:01:36.369Z,1007.87
2018-05-13T10:02:36.360Z,1007.83
2018-05-13T10:03:36.361Z,1007.82
2018-05-13T10:04:36.362Z,1007.83
2018-05-13T10:05:36.364Z,1007.97
2018-05-13T10:06:36.368Z,1008.03
2018-05-13T10:07:36.370Z,1008.07
2018-05-13T10:08:36.373Z,1008.17
2018-05-13T10:09:36.454Z,1008.17
2018-05-13T10:10:36.365Z,1008.16
2018-05-13T10:11:36.364Z,1008.13
2018-05-13T10:12:36.371Z,1008.03
2018-05-13T10:13:36.370Z,1008.08
2018-05-13T10:14:36.368Z,1008.06
2018-05-13T10:15:36.366Z,1007.96
2018-05-13T10:16:36.366Z,1007.97
2018-05-13T10:17:36.365Z,1008.00
2018-05-13T10:18:36.373Z,1007.97
2018-05-13T10:19:36.465Z,1008.02
2018-05-13T10:20:36.370Z,1008.02
2018-05-13T10:21:36.371Z,1008.03
2018-05-13T10:22:36.366Z,1008.03
2018-05-13T10:23:36.366Z,1008.02
2018-05-13T10:24:36.366Z,1008.02
2018-05-13T10:25:36.366Z,1007.95
2018-05-13T10:26:36.369Z,1008.01
2018-05-13T10:27:36.372Z,1007.99
2018-05-13T10:28:36.365Z,1008.04
2018-05-13T10:29:36.364Z,1008.08
2018-05-13T10:30:36.369Z,1008.10
2018-05-13T10:31:36.419Z,1008.10
2018-05-13T10:32:36.368Z,1008.14
2018-05-13T10:33:36.367Z,1008.18
2018-05-13T10:34:36.363Z,1008.17
2018-05-13T10:35:36.362Z,1008.15
2018-05-13T10:36:36.362Z,1008.22
2018-05-13T10:37:36.360Z,1008.13
2018-05-13T10:38:36.365Z,1008.14
2018-05-13T10:39:36.364Z,1008.11
2018-05-13T10:40:36.365Z,1008.10
2018-05-13T10:41:36.362Z,1008.07
2018-05-13T10:42:36.358Z,1008.06
2018-05-13T10:43:36.358Z,1008.11
2018-05-13T10:44:36.361Z,1008.11
2018-05-13T10:45:36.361Z,1008.17
2018-05-13T10:46:36.356Z,1008.18
2018-05-13T10:47:36.355Z,1008.24
2018-05-13T10:48:36.355Z,1008.25
2018-05-13T10:49:36.358Z,1008.16
2018-05-13T10:50:36.359Z,1008.16
2018-05-13T10:51:36.357Z,1008.16
2018-05-13T10:52:36.357Z,1008.13
2018-05-13T10:53:36.357Z,1008.14
2018-05-13T10:54:36.349Z,1008.13
2018-05-13T10:55:36.348Z,1008.14
2018-05-13T10:56:36.348Z,1008.27
2018-05-13T10:57:36.349Z,1008.27
2018-05-13T10:58:36.350Z,1008.20
2018-05-13T10:59:36.351Z,1008.22
2018-05-13T11:00:36.345Z,1008.16
2018-05-13T11:01:36.343Z,1008.20
2018-05-13T11:02:36.348Z,1008.24
2018-05-13T11:03:36.350Z,1008.30
2018-05-13T11:04:36.348Z,1008.40
2018-05-13T11:05:36.345Z,1008.48
2018-05-13T11:06:36.342Z,1008.48
2018-05-13T11:07:36.339Z,1008.55
2018-05-13T11:08:36.339Z,1008.57
2018-05-13T11:09:36.339Z,1008.51
2018-05-13T11:10:36.342Z,1008.44
2018-05-13T11:11:36.343Z,1008.46
2018-05-13T11:12:36.340Z,1008.34
2018-05-13T11:13:36.339Z,1008.25
2018-05-13T11:14:36.334Z,1008.20
2018-05-13T11:15:36.334Z,1008.13
2018-05-13T11:16:36.339Z,1008.10
2018-05-13T11:17:36.336Z,1008.01
2018-05-13T11:18:36.338Z,1007.96
2018-05-13T11:19:36.331Z,1008.07
2018-05-13T11:20:36.408Z,1008.04
2018-05-13T11:21:36.330Z,1007.99
2018-05-13T11:22:36.335Z,1008.03
2018-05-13T11:23:36.335Z,1008.09
2018-05-13T11:24:36.335Z,1008.07
2018-05-13T11:25:36.333Z,1008.05
2018-05-13T11:26:36.327Z,1008.05
2018-05-13T11:27:36.327Z,1008.02
2018-05-13T11:28:36.327Z,1008.00
2018-05-13T11:29:36.324Z,1008.03
2018-05-13T11:30:36.331Z,1008.02
2018-05-13T11:31:36.329Z,1007.99
2018-05-13T11:32:36.325Z,1008.00
2018-05-13T11:33:36.323Z,1008.00
2018-05-13T11:34:36.328Z,1008.01
2018-05-13T11:35:36.328Z,1007.96
2018-05-13T11:36:36.329Z,1007.99
2018-05-13T11:37:36.326Z,1008.03
2018-05-13T11:38:36.323Z,1008.08
2018-05-13T11:39:36.322Z,1008.17
2018-05-13T11:40:36.322Z,1008.17
2018-05-13T11:41:36.321Z,1008.18
2018-05-13T11:42:36.325Z,1008.22
2018-05-13T11:43:36.326Z,1008.19
2018-05-13T11:44:36.325Z,1008.19
2018-05-13T11:45:36.323Z,1008.20
2018-05-13T11:46:36.334Z,1008.21
2018-05-13T11:47:36.319Z,1008.23
2018-05-13T11:48:36.323Z,1008.27
2018-05-13T11:49:36.321Z,1008.21
2018-05-13T11:50:36.317Z,1008.25
2018-05-13T11:51:36.317Z,1008.26
2018-05-13T11:52:36.317Z,1008.25
2018-05-13T11:53:36.316Z,1008.32
2018-05-13T11:54:36.322Z,1008.33
2018-05-13T11:55:36.321Z,1008.34
2018-05-13T11:56:36.319Z,1008.33
2018-05-13T11:57:36.318Z,1008.35
2018-05-13T11:58:36.313Z,1008.35
2018-05-13T11:59:36.314Z,1008.33
2018-05-13T12:00:36.313Z,1008.36
2018-05-13T12:01:36.312Z,1008.38
2018-05-13T12:02:36.316Z,1008.42
2018-05-13T12:03:36.317Z,1008.40
2018-05-13T12:04:36.311Z,1008.42
2018-05-13T12:05:36.310Z,1008.37